createdAt,value
2023-03-26T00:02:13.925Z,3.08
2023-03-26T00:04:40.064Z,3.16
2023-03-26T00:07:06.168Z,3.11
2023-03-26T00:09:32.258Z,3.14
2023-03-26T00:11:58.386Z,3.12
2023-03-26T00:14:24.472Z,2.84
2023-03-26T00:16:50.620Z,2.86
2023-03-26T00:19:16.732Z,3.00
2023-03-26T00:21:42.856Z,2.85
2023-03-26T00:24:08.945Z,3.11
2023-03-26T00:26:35.082Z,3.15
2023-03-26T00:29:01.197Z,3.33
2023-03-26T00:31:27.302Z,3.34
2023-03-26T00:33:53.412Z,3.33
2023-03-26T00:36:19.529Z,3.49
2023-03-26T00:38:45.651Z,3.52
2023-03-26T00:41:11.729Z,3.56
2023-03-26T00:43:37.839Z,3.38
2023-03-26T00:46:04.018Z,2.84
2023-03-26T00:48:44.105Z,2.65
2023-03-26T00:51:11.479Z,2.83
2023-03-26T00:53:37.578Z,3.06
2023-03-26T00:56:03.687Z,3.12
2023-03-26T00:58:29.766Z,2.92
2023-03-26T01:00:55.875Z,3.23
2023-03-26T01:03:28.032Z,3.33
2023-03-26T01:05:54.709Z,3.37
2023-03-26T01:08:20.934Z,3.15
2023-03-26T01:10:47.016Z,3.37
2023-03-26T01:13:13.099Z,3.31
2023-03-26T01:15:39.218Z,3.25
2023-03-26T01:18:05.364Z,3.35
2023-03-26T01:20:31.463Z,3.39
2023-03-26T01:22:57.580Z,3.57
2023-03-26T01:25:23.694Z,3.67
2023-03-26T01:27:49.808Z,3.54
2023-03-26T01:30:15.940Z,3.46
2023-03-26T01:32:42.252Z,3.69
2023-03-26T01:35:08.442Z,3.55
2023-03-26T01:37:34.560Z,3.56
2023-03-26T01:40:00.670Z,3.69
2023-03-26T01:42:26.792Z,3.64
2023-03-26T01:44:52.922Z,3.34
2023-03-26T01:47:19.009Z,3.76
2023-03-26T01:49:45.114Z,3.57
2023-03-26T01:52:11.194Z,3.62
2023-03-26T01:54:37.315Z,3.75
2023-03-26T01:57:03.488Z,3.82
2023-03-26T01:59:29.634Z,3.74
2023-03-26T02:01:55.875Z,3.76
2023-03-26T02:04:22.035Z,3.83
2023-03-26T02:06:48.147Z,3.84
2023-03-26T02:09:14.254Z,3.69
2023-03-26T02:11:40.354Z,3.72
2023-03-26T02:14:06.457Z,3.71
2023-03-26T02:16:32.619Z,3.59
2023-03-26T02:18:58.801Z,3.56
2023-03-26T02:21:24.883Z,3.74
2023-03-26T02:23:51.108Z,3.61
2023-03-26T02:26:17.204Z,3.50
2023-03-26T02:28:43.300Z,3.33
2023-03-26T02:31:09.425Z,3.40
2023-03-26T02:33:35.536Z,3.58
2023-03-26T02:36:01.833Z,3.41
2023-03-26T02:38:28.166Z,3.56
2023-03-26T02:40:54.251Z,3.64
2023-03-26T02:43:20.343Z,3.54
2023-03-26T02:45:46.502Z,3.81
2023-03-26T02:48:12.597Z,3.53
2023-03-26T02:50:38.713Z,3.98
2023-03-26T02:53:04.812Z,3.93
2023-03-26T02:55:30.909Z,3.99
2023-03-26T02:57:57.015Z,3.59
2023-03-26T03:00:23.152Z,3.57
2023-03-26T03:02:49.337Z,3.71
2023-03-26T03:05:15.511Z,3.80
2023-03-26T03:07:41.638Z,3.92
2023-03-26T03:10:07.757Z,3.95
2023-03-26T03:12:33.874Z,3.93
2023-03-26T03:14:59.961Z,3.34
2023-03-26T03:17:26.058Z,3.42
2023-03-26T03:19:52.185Z,3.68
2023-03-26T03:22:18.297Z,3.56
2023-03-26T03:24:44.423Z,3.84
2023-03-26T03:27:10.541Z,3.51
2023-03-26T03:29:36.630Z,3.45
2023-03-26T03:32:02.775Z,3.72
2023-03-26T03:34:28.886Z,3.69
2023-03-26T03:36:54.982Z,3.61
2023-03-26T03:39:21.070Z,3.77
2023-03-26T03:41:47.184Z,3.61
2023-03-26T03:44:13.280Z,3.44
2023-03-26T03:46:39.396Z,3.69
2023-03-26T03:49:05.522Z,3.73
2023-03-26T03:51:31.635Z,3.65
2023-03-26T03:53:57.730Z,3.62
2023-03-26T03:56:23.842Z,3.62
2023-03-26T03:58:49.928Z,3.29
2023-03-26T04:01:16.044Z,3.10
2023-03-26T04:03:42.386Z,3.40
2023-03-26T04:06:08.655Z,3.37
2023-03-26T04:08:34.805Z,3.33
2023-03-26T04:11:00.967Z,3.31
2023-03-26T04:13:27.054Z,3.42
2023-03-26T04:15:53.372Z,3.35
2023-03-26T04:18:19.570Z,2.33
2023-03-26T04:20:45.689Z,2.71
2023-03-26T04:23:11.814Z,2.57
2023-03-26T04:25:37.923Z,2.26
2023-03-26T04:28:04.047Z,2.45
2023-03-26T04:30:30.267Z,2.77
2023-03-26T04:32:56.403Z,3.08
2023-03-26T04:35:22.538Z,3.32
2023-03-26T04:37:48.657Z,3.21
2023-03-26T04:40:14.787Z,3.15
2023-03-26T04:42:40.900Z,3.70
2023-03-26T04:45:07.017Z,3.63
2023-03-26T04:47:33.146Z,3.61
2023-03-26T04:49:59.318Z,3.80
2023-03-26T04:52:25.427Z,3.80
2023-03-26T04:54:51.509Z,3.69
2023-03-26T04:57:17.635Z,2.96
2023-03-26T04:59:43.783Z,2.81
2023-03-26T05:02:09.894Z,2.42
2023-03-26T05:04:36.105Z,2.77
2023-03-26T05:07:02.285Z,3.40
2023-03-26T05:09:28.383Z,3.01
2023-03-26T05:11:54.499Z,3.55
2023-03-26T05:14:20.589Z,3.36
2023-03-26T05:16:46.713Z,3.33
2023-03-26T05:19:12.858Z,3.42
2023-03-26T05:21:38.945Z,3.69
2023-03-26T05:24:05.029Z,3.94
2023-03-26T05:26:31.150Z,3.51
2023-03-26T05:28:57.233Z,3.77
2023-03-26T05:31:23.354Z,3.59
2023-03-26T05:33:49.465Z,3.38
2023-03-26T05:36:15.627Z,2.95
2023-03-26T05:38:41.777Z,3.17
2023-03-26T05:41:07.893Z,3.52
2023-03-26T05:43:34.019Z,3.58
2023-03-26T05:46:00.273Z,3.54
2023-03-26T05:48:26.433Z,3.82
2023-03-26T05:50:52.910Z,3.93
2023-03-26T05:53:19.280Z,4.06
2023-03-26T05:55:45.366Z,4.36
2023-03-26T05:58:11.495Z,4.15
2023-03-26T06:00:37.591Z,3.99
2023-03-26T06:03:03.859Z,4.23
2023-03-26T06:05:30.057Z,4.44
2023-03-26T06:07:56.158Z,4.23
2023-03-26T06:10:22.265Z,4.18
2023-03-26T06:12:48.375Z,4.18
2023-03-26T06:15:14.481Z,4.25
2023-03-26T06:17:40.640Z,4.31
2023-03-26T06:20:09.166Z,4.26
2023-03-26T06:22:35.567Z,3.83
2023-03-26T06:25:01.690Z,4.22
2023-03-26T06:27:27.794Z,4.20
2023-03-26T06:29:53.931Z,4.28
2023-03-26T06:32:20.632Z,4.19
2023-03-26T06:34:46.928Z,4.04
2023-03-26T06:37:13.042Z,4.10
2023-03-26T06:39:39.154Z,3.96
2023-03-26T06:42:05.244Z,3.85
2023-03-26T06:44:31.334Z,3.81
2023-03-26T06:46:57.467Z,4.04
2023-03-26T06:49:23.602Z,3.75
2023-03-26T06:51:49.726Z,3.99
2023-03-26T06:54:15.864Z,4.04
2023-03-26T06:56:42.000Z,3.47
2023-03-26T06:59:08.130Z,3.93
2023-03-26T07:01:34.344Z,3.95
2023-03-26T07:04:00.514Z,4.15
2023-03-26T07:06:26.691Z,4.59
2023-03-26T07:08:52.838Z,4.67
2023-03-26T07:11:18.955Z,4.49
2023-03-26T07:13:45.082Z,3.92
2023-03-26T07:16:11.212Z,4.53
2023-03-26T07:18:37.339Z,4.52
2023-03-26T07:21:03.460Z,4.66
2023-03-26T07:23:29.581Z,3.23
2023-03-26T07:25:55.775Z,2.36
2023-03-26T07:28:21.921Z,1.61
2023-03-26T07:30:48.050Z,0.58
2023-03-26T07:33:14.191Z,0.46
2023-03-26T07:35:40.375Z,0.49
2023-03-26T07:38:06.468Z,0.38
2023-03-26T07:40:32.560Z,0.57
2023-03-26T07:42:58.648Z,0.82
2023-03-26T07:45:24.776Z,1.23
2023-03-26T07:47:50.901Z,1.38
2023-03-26T07:50:18.320Z,1.46
2023-03-26T07:52:45.061Z,1.41
2023-03-26T07:55:11.472Z,1.72
2023-03-26T07:57:37.631Z,2.13
2023-03-26T08:00:03.807Z,2.24
2023-03-26T08:02:29.946Z,1.79
2023-03-26T08:04:56.209Z,1.97
2023-03-26T08:07:22.356Z,1.89
2023-03-26T08:09:48.444Z,2.34
2023-03-26T08:12:14.561Z,2.60
2023-03-26T08:14:40.662Z,2.58
2023-03-26T08:17:06.881Z,2.94
2023-03-26T08:19:33.010Z,2.99
2023-03-26T08:21:59.194Z,3.14
2023-03-26T08:24:25.318Z,3.07
2023-03-26T08:26:51.445Z,3.27
2023-03-26T08:29:17.545Z,3.28
2023-03-26T08:31:43.734Z,2.92
2023-03-26T08:34:13.258Z,3.15
2023-03-26T08:36:39.380Z,3.86
2023-03-26T08:39:05.482Z,4.05
2023-03-26T08:41:31.613Z,3.86
2023-03-26T08:43:57.741Z,3.96
2023-03-26T08:46:24.977Z,4.28
2023-03-26T08:48:52.112Z,4.35
2023-03-26T08:51:18.206Z,4.14
2023-03-26T08:53:44.321Z,4.45
2023-03-26T08:56:10.428Z,4.63
2023-03-26T08:58:36.552Z,4.82
2023-03-26T09:01:02.644Z,4.61
2023-03-26T09:03:28.756Z,3.94
2023-03-26T09:05:54.900Z,3.37
2023-03-26T09:08:21.001Z,2.89
2023-03-26T09:10:47.118Z,2.77
2023-03-26T09:13:13.231Z,2.25
2023-03-26T09:15:39.402Z,2.34
2023-03-26T09:18:05.603Z,2.90
2023-03-26T09:20:31.728Z,2.93
2023-03-26T09:22:57.833Z,3.15
2023-03-26T09:25:23.941Z,3.60
2023-03-26T09:27:50.057Z,3.95
2023-03-26T09:30:16.144Z,4.13
2023-03-26T09:32:42.306Z,4.26
2023-03-26T09:35:08.440Z,4.46
2023-03-26T09:37:34.520Z,4.40
2023-03-26T09:40:00.634Z,4.72
2023-03-26T09:42:26.802Z,5.26
2023-03-26T09:44:52.905Z,5.05
2023-03-26T09:47:19.059Z,4.64
2023-03-26T09:49:45.166Z,3.60
2023-03-26T09:52:11.258Z,3.14
2023-03-26T09:54:37.386Z,3.67
2023-03-26T09:57:03.528Z,4.02
2023-03-26T09:59:29.647Z,4.52
2023-03-26T10:01:55.759Z,4.99
2023-03-26T10:04:21.871Z,5.64
2023-03-26T10:06:47.983Z,5.63
2023-03-26T10:09:14.105Z,5.42
2023-03-26T10:11:40.198Z,5.11
2023-03-26T10:14:06.282Z,4.57
2023-03-26T10:16:32.482Z,4.17
2023-03-26T10:18:58.602Z,3.60
2023-03-26T10:21:26.173Z,3.94
2023-03-26T10:23:53.556Z,3.43
2023-03-26T10:26:19.657Z,3.23
2023-03-26T10:28:45.787Z,3.43
2023-03-26T10:31:11.916Z,3.77
2023-03-26T10:33:38.043Z,4.29
2023-03-26T10:36:04.199Z,4.56
2023-03-26T10:38:30.366Z,4.18
2023-03-26T10:40:56.727Z,4.34
2023-03-26T10:43:22.988Z,4.37
2023-03-26T10:45:49.202Z,4.16
2023-03-26T10:48:15.429Z,4.43
2023-03-26T10:50:41.577Z,4.85
2023-03-26T10:53:07.668Z,3.96
2023-03-26T10:55:33.791Z,4.44
2023-03-26T10:57:59.926Z,4.80
2023-03-26T11:00:26.057Z,4.44
2023-03-26T11:02:52.321Z,3.49
2023-03-26T11:05:18.731Z,3.56
2023-03-26T11:07:45.014Z,3.71
2023-03-26T11:10:11.422Z,3.38
2023-03-26T11:12:37.727Z,3.38
2023-03-26T11:15:03.880Z,2.12
2023-03-26T11:17:39.223Z,1.31
2023-03-26T11:20:06.095Z,1.01
2023-03-26T11:22:32.209Z,0.72
2023-03-26T11:24:58.304Z,0.36
2023-03-26T11:27:25.861Z,0.47
2023-03-26T11:29:52.644Z,0.95
2023-03-26T11:32:18.875Z,1.56
2023-03-26T11:34:45.424Z,1.94
2023-03-26T11:37:11.540Z,1.92
2023-03-26T11:39:37.671Z,2.67
2023-03-26T11:42:03.917Z,3.41
2023-03-26T11:44:30.065Z,4.31
2023-03-26T11:46:56.191Z,5.22
2023-03-26T11:49:22.514Z,5.64
2023-03-26T11:51:48.720Z,5.99
2023-03-26T11:54:15.134Z,6.41
2023-03-26T11:56:41.595Z,6.40
2023-03-26T11:59:27.727Z,6.04
2023-03-26T12:01:54.021Z,5.72
2023-03-26T12:04:20.346Z,6.55
2023-03-26T12:06:46.586Z,7.01
2023-03-26T12:09:12.803Z,6.75
2023-03-26T12:11:39.015Z,7.15
2023-03-26T12:14:05.445Z,7.61
2023-03-26T12:16:31.688Z,7.48
2023-03-26T12:18:57.882Z,8.05
2023-03-26T12:21:23.987Z,8.46
2023-03-26T12:23:50.224Z,8.86
2023-03-26T12:26:16.424Z,9.31
2023-03-26T12:28:43.024Z,9.17
2023-03-26T12:31:09.145Z,9.20
2023-03-26T12:33:35.449Z,9.28
2023-03-26T12:36:01.783Z,9.01
2023-03-26T12:38:28.004Z,8.77
2023-03-26T12:40:54.362Z,9.29
2023-03-26T12:44:55.725Z,9.63
2023-03-26T12:47:57.494Z,9.62
2023-03-26T12:48:53.272Z,7.97
2023-03-26T12:51:19.550Z,8.46
2023-03-26T12:53:45.813Z,8.36
2023-03-26T12:56:11.959Z,9.20
2023-03-26T12:58:38.118Z,9.57
2023-03-26T13:01:04.281Z,10.06
2023-03-26T13:03:30.467Z,10.34
2023-03-26T13:05:56.698Z,10.24
2023-03-26T13:08:22.903Z,9.94
2023-03-26T13:10:49.103Z,7.90
2023-03-26T13:13:15.371Z,7.37
2023-03-26T13:15:41.559Z,7.12
2023-03-26T13:18:07.812Z,5.60
2023-03-26T13:20:33.962Z,5.89
2023-03-26T13:23:00.116Z,6.37
2023-03-26T13:25:26.351Z,6.93
2023-03-26T13:27:52.652Z,7.07
2023-03-26T13:30:18.900Z,7.71
2023-03-26T13:32:45.151Z,7.36
2023-03-26T13:35:11.337Z,6.83
2023-03-26T13:37:37.665Z,7.02
2023-03-26T13:40:03.811Z,7.68
2023-03-26T13:42:30.143Z,8.04
2023-03-26T13:45:05.143Z,9.02
2023-03-26T13:47:32.243Z,9.45
2023-03-26T13:49:58.748Z,9.90
2023-03-26T13:52:25.134Z,10.36
2023-03-26T13:54:51.295Z,10.03
2023-03-26T13:57:17.494Z,9.75
2023-03-26T13:59:43.830Z,9.48
2023-03-26T14:02:10.039Z,9.50
2023-03-26T14:04:36.492Z,9.00
2023-03-26T14:07:02.708Z,7.85
2023-03-26T14:09:28.847Z,4.91
2023-03-26T14:11:54.995Z,3.44
2023-03-26T14:14:21.205Z,2.78
2023-03-26T14:16:47.340Z,2.28
2023-03-26T14:19:13.480Z,1.92
2023-03-26T14:21:39.894Z,1.67
2023-03-26T14:24:06.173Z,1.36
2023-03-26T14:26:32.287Z,1.43
2023-03-26T14:28:58.429Z,1.14
2023-03-26T14:31:24.603Z,0.84
2023-03-26T14:33:50.767Z,0.49
2023-03-26T14:36:16.914Z,0.41
2023-03-26T14:38:43.043Z,0.12
2023-03-26T14:41:09.466Z,-0.24
2023-03-26T14:43:35.768Z,-0.61
2023-03-26T14:46:01.933Z,-1.05
2023-03-26T14:48:28.222Z,-0.90
2023-03-26T14:50:54.764Z,-1.16
2023-03-26T14:53:21.503Z,-1.35
2023-03-26T14:55:47.679Z,-1.49
2023-03-26T14:58:13.923Z,-1.29
2023-03-26T15:00:40.105Z,-0.84
2023-03-26T15:03:06.503Z,-0.83
2023-03-26T15:05:32.691Z,-1.00
2023-03-26T15:07:58.878Z,-0.56
2023-03-26T15:10:25.119Z,-0.38
2023-03-26T15:12:51.586Z,-0.05
2023-03-26T15:15:17.749Z,0.24
2023-03-26T15:17:44.227Z,0.41
2023-03-26T15:20:10.425Z,0.50
2023-03-26T15:22:36.571Z,-0.14
2023-03-26T15:25:02.782Z,-0.23
2023-03-26T15:27:28.933Z,0.01
2023-03-26T15:29:55.137Z,0.32
2023-03-26T15:32:21.384Z,0.59
2023-03-26T15:34:47.686Z,0.87
2023-03-26T15:37:13.851Z,1.62
2023-03-26T15:39:39.997Z,2.25
2023-03-26T15:42:06.122Z,2.61
2023-03-26T15:44:38.081Z,2.59
2023-03-26T15:47:10.164Z,3.09
2023-03-26T15:49:36.296Z,3.69
2023-03-26T15:52:02.436Z,3.96
2023-03-26T15:54:28.618Z,4.19
2023-03-26T15:56:55.079Z,4.40
2023-03-26T15:59:21.287Z,4.52
2023-03-26T16:01:47.786Z,4.25
2023-03-26T16:04:14.312Z,4.29
2023-03-26T16:06:40.523Z,4.59
2023-03-26T16:09:06.886Z,4.61
2023-03-26T16:11:33.373Z,3.89
2023-03-26T16:13:59.496Z,4.25
2023-03-26T16:16:25.747Z,3.92
2023-03-26T16:18:51.983Z,3.56
2023-03-26T16:21:30.864Z,3.64
2023-03-26T16:23:58.403Z,3.69
2023-03-26T16:26:24.595Z,3.60
2023-03-26T16:28:51.033Z,3.83
2023-03-26T16:31:23.381Z,3.87
2023-03-26T16:34:03.297Z,3.77
2023-03-26T16:36:29.613Z,3.49
2023-03-26T16:38:55.768Z,3.44
2023-03-26T16:41:21.923Z,3.58
2023-03-26T16:43:48.105Z,3.61
2023-03-26T16:46:14.241Z,3.43
2023-03-26T16:48:40.517Z,3.32
2023-03-26T16:51:06.742Z,3.19
2023-03-26T16:53:33.202Z,2.93
2023-03-26T16:55:59.403Z,3.24
2023-03-26T16:58:25.805Z,3.63
2023-03-26T17:00:51.915Z,3.83
2023-03-26T17:03:18.079Z,3.79
2023-03-26T17:05:44.312Z,3.72
2023-03-26T17:08:10.546Z,3.66
2023-03-26T17:10:36.655Z,3.66
2023-03-26T17:13:02.921Z,3.42
2023-03-26T17:15:29.170Z,3.29
2023-03-26T17:17:55.371Z,3.31
2023-03-26T17:20:21.645Z,3.31
2023-03-26T17:22:47.948Z,3.35
2023-03-26T17:25:14.142Z,3.27
2023-03-26T17:27:40.277Z,3.35
2023-03-26T17:30:06.592Z,2.99
2023-03-26T17:32:32.772Z,3.03
2023-03-26T17:35:07.710Z,3.22
2023-03-26T17:37:33.875Z,2.74
2023-03-26T17:40:00.139Z,2.56
2023-03-26T17:42:26.275Z,2.45
2023-03-26T17:44:52.430Z,2.27
2023-03-26T17:47:18.850Z,2.54
2023-03-26T17:49:45.038Z,2.32
2023-03-26T17:52:11.177Z,1.97
2023-03-26T17:54:37.388Z,2.18
2023-03-26T17:57:03.610Z,2.44
2023-03-26T17:59:29.748Z,2.08
2023-03-26T18:01:55.878Z,2.02
2023-03-26T18:04:22.096Z,2.05
2023-03-26T18:06:48.209Z,2.10
2023-03-26T18:09:14.332Z,1.99
2023-03-26T18:11:40.478Z,1.79
2023-03-26T18:14:06.597Z,1.67
2023-03-26T18:16:32.732Z,1.62
2023-03-26T18:18:58.973Z,1.75
2023-03-26T18:21:25.180Z,1.83
2023-03-26T18:23:51.339Z,1.81
2023-03-26T18:26:17.488Z,2.16
2023-03-26T18:28:43.617Z,1.97
2023-03-26T18:31:10.705Z,1.87
2023-03-26T18:33:36.905Z,1.94
2023-03-26T18:36:03.091Z,1.71
2023-03-26T18:38:36.944Z,1.70
2023-03-26T18:41:04.810Z,1.69
2023-03-26T18:43:35.156Z,1.66
2023-03-26T18:46:01.772Z,1.72
2023-03-26T18:48:28.602Z,1.86
2023-03-26T18:50:55.296Z,1.80
2023-03-26T18:53:22.041Z,1.91
2023-03-26T18:55:48.267Z,1.73
2023-03-26T18:58:14.856Z,1.46
2023-03-26T19:00:41.028Z,1.39
2023-03-26T19:03:07.228Z,1.36
2023-03-26T19:05:33.390Z,1.24
2023-03-26T19:07:59.840Z,1.28
2023-03-26T19:10:26.296Z,1.62
2023-03-26T19:12:52.714Z,1.59
2023-03-26T19:15:19.032Z,1.58
2023-03-26T19:17:45.174Z,1.65
2023-03-26T19:20:11.407Z,1.64
2023-03-26T19:22:37.847Z,1.20
2023-03-26T19:25:04.291Z,1.58
2023-03-26T19:27:30.405Z,1.55
2023-03-26T19:29:56.818Z,1.53
2023-03-26T19:32:23.036Z,1.58
2023-03-26T19:34:49.234Z,1.55
2023-03-26T19:37:15.636Z,1.50
2023-03-26T19:39:41.768Z,1.54
2023-03-26T19:42:07.951Z,1.77
2023-03-26T19:44:34.214Z,1.52
2023-03-26T19:47:00.499Z,1.59
2023-03-26T19:49:28.334Z,1.53
2023-03-26T19:51:54.643Z,1.40
2023-03-26T19:54:21.079Z,1.11
2023-03-26T19:56:47.291Z,1.28
2023-03-26T19:59:13.609Z,1.57
2023-03-26T20:01:40.102Z,1.41
2023-03-26T20:04:06.638Z,1.40
2023-03-26T20:06:42.401Z,1.42
2023-03-26T20:09:10.422Z,1.40
2023-03-26T20:11:36.596Z,1.49
2023-03-26T20:14:02.791Z,1.61
2023-03-26T20:16:29.004Z,1.64
2023-03-26T20:18:55.231Z,1.55
2023-03-26T20:21:21.476Z,1.41
2023-03-26T20:23:47.925Z,1.42
2023-03-26T20:26:14.542Z,1.53
2023-03-26T20:28:47.814Z,1.47
2023-03-26T20:31:15.214Z,1.71
2023-03-26T20:33:42.802Z,1.67
2023-03-26T20:36:09.082Z,1.71
2023-03-26T20:38:39.346Z,1.80
2023-03-26T20:41:06.053Z,1.78
2023-03-26T20:43:32.262Z,1.77
2023-03-26T20:45:58.723Z,1.95
2023-03-26T20:48:25.349Z,1.84
2023-03-26T20:50:51.685Z,1.76
2023-03-26T20:53:17.848Z,1.21
2023-03-26T20:55:43.994Z,1.03
2023-03-26T20:58:10.246Z,0.27
2023-03-26T21:00:36.496Z,-0.27
2023-03-26T21:03:02.689Z,0.06
2023-03-26T21:05:28.840Z,0.25
2023-03-26T21:07:55.037Z,0.46
2023-03-26T21:10:21.183Z,0.69
2023-03-26T21:12:47.635Z,0.73
2023-03-26T21:15:23.025Z,0.68
2023-03-26T21:17:50.010Z,0.78
2023-03-26T21:20:16.511Z,1.13
2023-03-26T21:22:42.739Z,1.46
2023-03-26T21:25:09.132Z,1.45
2023-03-26T21:27:35.361Z,1.36
2023-03-26T21:30:01.484Z,1.20
2023-03-26T21:32:27.664Z,1.54
2023-03-26T21:37:23.216Z,1.60
2023-03-26T21:39:49.579Z,1.68
2023-03-26T21:42:16.162Z,1.76
2023-03-26T21:44:42.436Z,1.84
2023-03-26T21:47:09.899Z,1.83
2023-03-26T21:49:36.193Z,1.75
2023-03-26T21:52:02.525Z,1.97
2023-03-26T21:54:28.639Z,1.79
2023-03-26T21:56:55.079Z,1.71
2023-03-26T21:59:21.274Z,1.62
2023-03-26T22:01:47.474Z,1.61
2023-03-26T22:04:13.689Z,1.67
2023-03-26T22:06:39.919Z,1.43
2023-03-26T22:09:06.386Z,1.32
2023-03-26T22:11:32.830Z,1.53
2023-03-26T22:13:59.045Z,1.57
2023-03-26T22:16:25.493Z,1.65
2023-03-26T22:18:51.992Z,1.60
2023-03-26T22:21:18.147Z,1.56
2023-03-26T22:23:44.396Z,1.40
2023-03-26T22:26:10.635Z,1.66
2023-03-26T22:28:36.934Z,1.68
2023-03-26T22:31:03.388Z,1.61
2023-03-26T22:33:29.533Z,1.41
2023-03-26T22:35:55.705Z,1.48
2023-03-26T22:38:21.947Z,1.72
2023-03-26T22:40:48.084Z,1.65
2023-03-26T22:43:14.222Z,1.55
2023-03-26T22:45:40.343Z,1.26
2023-03-26T22:48:06.519Z,1.23
2023-03-26T22:50:32.826Z,1.22
2023-03-26T22:52:59.148Z,1.42
2023-03-26T22:55:28.325Z,1.51
2023-03-26T22:57:55.820Z,1.27
2023-03-26T23:00:21.968Z,1.17
2023-03-26T23:02:48.291Z,1.42
2023-03-26T23:05:14.510Z,1.15
2023-03-26T23:07:40.664Z,1.33
2023-03-26T23:10:06.954Z,1.49
2023-03-26T23:12:33.106Z,1.90
2023-03-26T23:14:59.521Z,1.64
2023-03-26T23:17:25.790Z,1.46
2023-03-26T23:19:52.239Z,1.34
2023-03-26T23:22:18.374Z,1.30
2023-03-26T23:24:44.603Z,1.35
2023-03-26T23:27:10.841Z,1.53
2023-03-26T23:29:37.000Z,1.58
2023-03-26T23:32:03.229Z,1.48
2023-03-26T23:34:51.831Z,1.50
2023-03-26T23:37:18.632Z,1.37
2023-03-26T23:39:44.771Z,1.76
2023-03-26T23:42:10.905Z,1.94
2023-03-26T23:44:37.152Z,1.77
2023-03-26T23:47:03.298Z,1.66
2023-03-26T23:49:29.430Z,1.65
2023-03-26T23:51:55.568Z,1.75
2023-03-26T23:54:21.704Z,1.83
2023-03-26T23:56:47.799Z,1.79
2023-03-26T23:59:13.936Z,2.00
